createdAt,value
2018-07-10T00:02:23.021Z,6.93
2018-07-10T00:05:15.535Z,5.50
2018-07-10T00:07:57.593Z,6.17
2018-07-10T00:10:36.670Z,5.40
2018-07-10T00:13:06.371Z,9.67
2018-07-10T00:15:35.717Z,6.77
2018-07-10T00:18:04.739Z,8.20
2018-07-10T00:20:34.178Z,5.87
2018-07-10T00:23:03.382Z,11.10
2018-07-10T00:25:32.538Z,6.33
2018-07-10T00:28:01.739Z,7.50
2018-07-10T00:30:30.960Z,8.37
2018-07-10T00:32:59.830Z,7.07
2018-07-10T00:35:28.893Z,6.80
2018-07-10T00:38:08.965Z,7.83
2018-07-10T00:40:38.005Z,6.33
2018-07-10T00:43:10.470Z,6.50
2018-07-10T00:45:39.685Z,9.40
2018-07-10T00:48:09.368Z,7.60
2018-07-10T00:50:38.685Z,7.13
2018-07-10T00:53:07.957Z,6.57
2018-07-10T00:55:37.134Z,9.37
2018-07-10T00:58:06.438Z,6.60
2018-07-10T01:00:36.337Z,7.80
2018-07-10T01:03:05.216Z,5.77
2018-07-10T01:05:34.846Z,7.47
2018-07-10T01:08:03.951Z,9.13
2018-07-10T01:10:32.831Z,6.40
2018-07-10T01:13:02.601Z,5.50
2018-07-10T01:15:31.751Z,5.23
2018-07-10T01:18:00.971Z,5.43
2018-07-10T01:20:30.063Z,6.00
2018-07-10T01:22:58.918Z,7.13
2018-07-10T01:25:28.278Z,6.00
2018-07-10T01:27:57.610Z,12.60
2018-07-10T01:30:26.874Z,6.00
2018-07-10T01:32:56.153Z,4.97
2018-07-10T01:35:25.124Z,6.27
2018-07-10T01:37:54.935Z,9.60
2018-07-10T01:40:23.865Z,9.77
2018-07-10T01:42:53.847Z,6.70
2018-07-10T01:45:22.791Z,5.67
2018-07-10T01:47:52.041Z,6.77
2018-07-10T01:50:21.157Z,7.90
2018-07-10T01:52:50.026Z,9.73
2018-07-10T01:55:20.286Z,10.50
2018-07-10T01:57:51.945Z,6.13
2018-07-10T02:00:31.890Z,6.40
2018-07-10T02:03:00.787Z,8.03
2018-07-10T02:05:30.558Z,9.03
2018-07-10T02:07:59.944Z,10.53
2018-07-10T02:10:29.051Z,8.13
2018-07-10T02:12:58.247Z,9.97
2018-07-10T02:15:28.030Z,5.93
2018-07-10T02:17:56.910Z,8.93
2018-07-10T02:20:28.582Z,8.60
2018-07-10T02:23:01.307Z,5.77
2018-07-10T02:25:30.321Z,10.20
2018-07-10T02:27:59.506Z,5.43
2018-07-10T02:30:28.984Z,15.20
2018-07-10T02:32:58.040Z,11.53
2018-07-10T02:35:26.979Z,5.27
2018-07-10T02:37:56.381Z,6.63
2018-07-10T02:40:25.228Z,9.87
2018-07-10T02:42:54.234Z,6.90
2018-07-10T02:45:23.226Z,5.80
2018-07-10T02:47:52.700Z,7.53
2018-07-10T02:50:22.883Z,6.80
2018-07-10T02:52:52.097Z,8.23
2018-07-10T02:55:21.328Z,8.83
2018-07-10T02:57:50.751Z,9.53
2018-07-10T03:00:20.078Z,9.23
2018-07-10T03:02:50.988Z,7.53
2018-07-10T03:05:22.117Z,7.47
2018-07-10T03:07:51.590Z,6.47
2018-07-10T03:10:21.063Z,8.00
2018-07-10T03:12:50.330Z,6.00
2018-07-10T03:15:19.243Z,5.10
2018-07-10T03:17:48.313Z,5.37
2018-07-10T03:20:17.518Z,5.63
2018-07-10T03:22:46.944Z,5.73
2018-07-10T03:25:15.805Z,4.70
2018-07-10T03:27:44.983Z,4.20
2018-07-10T03:30:13.995Z,4.47
2018-07-10T03:32:42.954Z,5.00
2018-07-10T03:35:11.996Z,4.87
2018-07-10T03:37:40.920Z,6.23
2018-07-10T03:40:09.977Z,6.03
2018-07-10T03:42:39.058Z,4.17
2018-07-10T03:45:07.977Z,7.33
2018-07-10T03:47:36.898Z,8.53
2018-07-10T03:50:06.213Z,6.40
2018-07-10T03:52:36.445Z,4.13
2018-07-10T03:55:10.872Z,3.77
2018-07-10T03:57:39.865Z,4.77
2018-07-10T04:00:11.280Z,7.50
2018-07-10T04:02:44.290Z,3.67
2018-07-10T04:05:13.787Z,3.20
2018-07-10T04:07:43.043Z,5.03
2018-07-10T04:10:13.989Z,3.27
2018-07-10T04:12:43.058Z,3.37
2018-07-10T04:15:12.582Z,3.50
2018-07-10T04:17:43.875Z,4.00
2018-07-10T04:20:16.841Z,4.27
2018-07-10T04:22:54.101Z,5.57
2018-07-10T04:25:27.097Z,3.93
2018-07-10T04:28:05.019Z,3.40
2018-07-10T04:30:50.603Z,4.17
2018-07-10T04:33:20.581Z,2.97
2018-07-10T04:35:49.713Z,7.80
2018-07-10T04:38:19.179Z,3.37
2018-07-10T04:40:49.370Z,4.23
2018-07-10T04:43:21.902Z,4.30
2018-07-10T04:45:57.850Z,5.17
2018-07-10T04:48:33.307Z,6.43
2018-07-10T04:51:18.598Z,5.17
2018-07-10T04:53:53.550Z,4.10
2018-07-10T04:56:23.020Z,5.00
2018-07-10T04:58:55.290Z,3.53
2018-07-10T05:01:33.991Z,8.03
2018-07-10T05:04:09.520Z,4.23
2018-07-10T05:06:39.161Z,4.37
2018-07-10T05:09:14.928Z,4.57
2018-07-10T05:11:50.999Z,5.17
2018-07-10T05:14:23.154Z,6.47
2018-07-10T05:17:01.466Z,8.63
2018-07-10T05:19:44.469Z,6.13
2018-07-10T05:22:22.259Z,6.20
2018-07-10T05:25:11.060Z,5.97
2018-07-10T05:27:44.703Z,5.30
2018-07-10T05:30:31.879Z,7.00
2018-07-10T05:33:17.626Z,5.53
2018-07-10T05:36:03.397Z,5.73
2018-07-10T05:38:57.401Z,5.37
2018-07-10T05:41:38.939Z,8.43
2018-07-10T05:44:21.572Z,5.20
2018-07-10T05:46:55.575Z,5.63
2018-07-10T05:49:26.226Z,5.40
2018-07-10T05:51:57.631Z,6.30
2018-07-10T05:54:29.757Z,7.13
2018-07-10T05:57:17.330Z,8.33
2018-07-10T06:02:41.638Z,8.23
2018-07-10T06:05:19.058Z,8.80
2018-07-10T06:10:44.622Z,7.80
2018-07-10T06:13:17.823Z,6.23
2018-07-10T06:15:54.435Z,6.70
2018-07-10T06:18:25.807Z,8.80
2018-07-10T06:20:56.367Z,4.93
2018-07-10T06:23:30.863Z,4.90
2018-07-10T06:26:01.528Z,6.70
2018-07-10T06:28:31.657Z,5.80
2018-07-10T06:31:07.443Z,4.97
2018-07-10T06:33:38.713Z,5.00
2018-07-10T06:36:13.898Z,4.80
2018-07-10T06:38:56.971Z,4.10
2018-07-10T06:41:27.378Z,5.13
2018-07-10T06:43:59.621Z,3.80
2018-07-10T06:46:43.180Z,5.17
2018-07-10T06:49:24.166Z,5.60
2018-07-10T06:52:27.710Z,3.13
2018-07-10T06:55:09.432Z,2.70
2018-07-10T06:57:58.224Z,3.30
2018-07-10T07:00:28.551Z,2.60
2018-07-10T07:02:57.568Z,5.23
2018-07-10T07:05:27.618Z,2.00
2018-07-10T07:07:56.996Z,13.93
2018-07-10T07:10:27.042Z,3.53
2018-07-10T07:12:56.105Z,2.60
2018-07-10T07:15:25.628Z,4.57
2018-07-10T07:17:54.807Z,3.13
2018-07-10T07:20:24.282Z,5.90
2018-07-10T07:22:53.927Z,4.23
2018-07-10T07:25:22.812Z,3.57
2018-07-10T07:27:52.006Z,2.80
2018-07-10T07:30:21.240Z,3.00
2018-07-10T07:32:50.746Z,2.37
2018-07-10T07:35:22.223Z,4.13
2018-07-10T07:37:51.934Z,2.40
2018-07-10T07:40:23.986Z,2.93
2018-07-10T07:42:53.590Z,2.53
2018-07-10T07:45:27.621Z,2.90
2018-07-10T07:47:58.421Z,2.90
2018-07-10T07:50:27.991Z,3.40
2018-07-10T07:52:58.339Z,3.03
2018-07-10T07:55:31.766Z,4.33
2018-07-10T07:58:04.636Z,2.50
2018-07-10T08:00:35.424Z,2.27
2018-07-10T08:03:07.868Z,2.53
2018-07-10T08:05:39.329Z,2.47
2018-07-10T08:08:08.743Z,2.73
2018-07-10T08:10:39.901Z,2.80
2018-07-10T08:13:10.891Z,2.23
2018-07-10T08:15:42.386Z,2.30
2018-07-10T08:18:11.856Z,2.47
2018-07-10T08:20:42.997Z,2.40
2018-07-10T08:23:20.551Z,2.30
2018-07-10T08:25:55.859Z,3.63
2018-07-10T08:28:25.368Z,2.30
2018-07-10T08:30:56.289Z,1.67
2018-07-10T08:33:25.851Z,1.90
2018-07-10T08:35:56.322Z,2.00
2018-07-10T08:38:43.217Z,3.63
2018-07-10T08:41:23.035Z,1.80
2018-07-10T08:43:52.636Z,1.80
2018-07-10T08:46:32.527Z,2.03
2018-07-10T08:49:02.048Z,2.23
2018-07-10T08:51:32.613Z,1.97
2018-07-10T08:54:07.313Z,1.70
2018-07-10T08:56:36.443Z,2.23
2018-07-10T08:59:08.545Z,1.70
2018-07-10T09:01:54.015Z,2.97
2018-07-10T09:04:23.663Z,1.87
2018-07-10T09:06:53.752Z,1.93
2018-07-10T09:09:25.862Z,2.20
2018-07-10T09:11:56.139Z,2.27
2018-07-10T09:14:25.604Z,2.10
2018-07-10T09:20:14.486Z,2.37
2018-07-10T09:22:46.866Z,2.10
2018-07-10T09:25:18.071Z,3.70
2018-07-10T09:28:00.557Z,3.83
2018-07-10T09:30:30.325Z,2.13
2018-07-10T09:35:45.571Z,3.20
2018-07-10T09:41:26.051Z,26.03
2018-07-10T09:44:01.653Z,3.73
2018-07-10T09:46:32.586Z,2.00
2018-07-10T09:49:02.329Z,1.67
2018-07-10T09:51:33.611Z,1.80
2018-07-10T09:54:03.976Z,1.97
2018-07-10T09:56:34.655Z,1.90
2018-07-10T09:59:06.495Z,2.10
2018-07-10T10:01:37.927Z,2.00
2018-07-10T10:04:09.820Z,2.43
2018-07-10T10:06:39.465Z,2.47
2018-07-10T10:09:09.503Z,2.30
2018-07-10T10:11:39.965Z,1.40
2018-07-10T10:14:11.891Z,2.17
2018-07-10T10:16:42.029Z,2.50
2018-07-10T10:19:11.798Z,2.47
2018-07-10T10:21:41.133Z,2.83
2018-07-10T10:24:10.172Z,2.47
2018-07-10T10:26:39.757Z,2.00
2018-07-10T10:29:08.869Z,1.50
2018-07-10T10:31:38.254Z,2.70
2018-07-10T10:34:08.879Z,1.90
2018-07-10T10:36:38.216Z,2.93
2018-07-10T10:39:07.314Z,1.90
2018-07-10T10:41:36.603Z,1.87
2018-07-10T10:44:07.630Z,2.10
2018-07-10T10:46:37.162Z,1.67
2018-07-10T10:49:07.073Z,1.60
2018-07-10T10:51:37.157Z,2.37
2018-07-10T10:54:06.989Z,2.70
2018-07-10T10:56:36.333Z,1.73
2018-07-10T10:59:20.108Z,2.13
2018-07-10T11:02:12.165Z,1.70
2018-07-10T11:10:55.310Z,1.60
2018-07-10T11:13:26.019Z,2.50
2018-07-10T11:15:55.852Z,1.77
2018-07-10T11:18:37.347Z,1.93
2018-07-10T11:22:14.160Z,1.60
2018-07-10T11:25:17.478Z,1.60
2018-07-10T11:28:04.588Z,1.67
2018-07-10T11:30:34.622Z,1.77
2018-07-10T11:33:05.055Z,1.60
2018-07-10T11:35:34.739Z,2.93
2018-07-10T11:38:07.832Z,1.47
2018-07-10T11:40:37.889Z,1.60
2018-07-10T11:43:09.235Z,1.80
2018-07-10T11:45:40.025Z,1.77
2018-07-10T11:48:10.219Z,2.03
2018-07-10T11:50:39.706Z,1.77
2018-07-10T11:53:09.846Z,1.90
2018-07-10T11:55:39.331Z,1.70
2018-07-10T11:58:09.350Z,1.67
2018-07-10T12:00:39.063Z,2.17
2018-07-10T12:03:08.700Z,2.10
2018-07-10T12:05:39.343Z,1.87
2018-07-10T12:08:08.289Z,2.93
2018-07-10T12:10:39.573Z,2.00
2018-07-10T12:13:08.881Z,1.83
2018-07-10T12:15:38.110Z,2.20
2018-07-10T12:18:07.250Z,2.10
2018-07-10T12:20:41.787Z,2.17
2018-07-10T12:23:11.390Z,2.57
2018-07-10T12:25:43.102Z,2.90
2018-07-10T12:28:13.889Z,3.77
2018-07-10T12:30:43.255Z,2.20
2018-07-10T12:33:12.254Z,2.80
2018-07-10T12:35:41.684Z,2.20
2018-07-10T12:38:10.974Z,2.77
2018-07-10T12:40:40.304Z,2.20
2018-07-10T12:43:09.833Z,2.50
2018-07-10T12:45:38.988Z,2.27
2018-07-10T12:48:08.332Z,2.07
2018-07-10T12:50:37.558Z,2.47
2018-07-10T12:53:07.129Z,2.40
2018-07-10T12:55:37.365Z,2.60
2018-07-10T12:58:07.215Z,2.40
2018-07-10T13:00:38.791Z,2.60
2018-07-10T13:03:11.165Z,2.80
2018-07-10T13:05:50.702Z,2.20
2018-07-10T13:08:19.953Z,2.30
2018-07-10T13:10:49.214Z,2.40
2018-07-10T13:13:18.690Z,2.17
2018-07-10T13:15:48.946Z,2.57
2018-07-10T13:18:21.417Z,2.80
2018-07-10T13:20:52.303Z,2.60
2018-07-10T13:23:21.709Z,2.60
2018-07-10T13:25:51.153Z,2.43
2018-07-10T13:28:20.679Z,2.57
2018-07-10T13:30:49.590Z,2.53
2018-07-10T13:33:19.658Z,2.90
2018-07-10T13:35:48.921Z,3.20
2018-07-10T13:38:21.966Z,2.90
2018-07-10T13:40:54.407Z,3.07
2018-07-10T13:43:23.536Z,3.03
2018-07-10T13:45:52.932Z,3.00
2018-07-10T13:48:22.083Z,3.27
2018-07-10T13:50:51.385Z,3.10
2018-07-10T13:53:21.265Z,3.83
2018-07-10T13:55:50.519Z,8.00
2018-07-10T13:58:31.865Z,3.47
2018-07-10T14:01:04.125Z,3.80
2018-07-10T14:03:34.155Z,3.20
2018-07-10T14:06:03.777Z,3.33
2018-07-10T14:08:33.930Z,3.10
2018-07-10T14:11:04.214Z,3.10
2018-07-10T14:13:33.789Z,3.37
2018-07-10T14:16:03.645Z,3.37
2018-07-10T14:18:33.114Z,3.00
2018-07-10T14:21:06.132Z,3.10
2018-07-10T14:23:36.920Z,2.93
2018-07-10T14:26:06.384Z,3.20
2018-07-10T14:28:35.853Z,3.20
2018-07-10T14:31:05.222Z,3.33
2018-07-10T14:33:34.897Z,3.20
2018-07-10T14:36:04.742Z,3.50
2018-07-10T14:38:34.051Z,3.23
2018-07-10T14:41:08.878Z,3.27
2018-07-10T14:43:43.059Z,3.07
2018-07-10T14:46:18.022Z,3.10
2018-07-10T14:48:55.678Z,2.97
2018-07-10T14:51:50.418Z,3.20
2018-07-10T14:54:20.007Z,3.00
2018-07-10T14:56:50.321Z,3.20
2018-07-10T14:59:19.507Z,3.20
2018-07-10T15:01:48.964Z,5.23
2018-07-10T15:04:18.471Z,3.20
2018-07-10T15:06:48.377Z,3.50
2018-07-10T15:09:17.964Z,3.70
2018-07-10T15:11:47.658Z,3.60
2018-07-10T15:14:16.845Z,3.63
2018-07-10T15:16:51.665Z,4.30
2018-07-10T15:19:21.269Z,3.77
2018-07-10T15:21:50.636Z,3.33
2018-07-10T15:24:19.834Z,3.20
2018-07-10T15:26:49.432Z,3.20
2018-07-10T15:29:23.672Z,3.60
2018-07-10T15:31:53.017Z,3.73
2018-07-10T15:34:22.468Z,3.93
2018-07-10T15:36:51.798Z,3.60
2018-07-10T15:39:23.082Z,3.87
2018-07-10T15:41:53.444Z,3.73
2018-07-10T15:44:22.525Z,3.83
2018-07-10T15:46:51.815Z,4.37
2018-07-10T15:49:21.006Z,3.93
2018-07-10T15:51:50.303Z,3.90
2018-07-10T15:54:19.705Z,4.00
2018-07-10T15:56:48.861Z,4.40
2018-07-10T15:59:18.314Z,4.43
2018-07-10T16:01:47.569Z,5.03
2018-07-10T16:04:16.939Z,4.27
2018-07-10T16:06:46.149Z,5.80
2018-07-10T16:09:21.653Z,5.80
2018-07-10T16:11:56.462Z,6.50
2018-07-10T16:14:26.363Z,6.07
2018-07-10T16:16:56.002Z,6.07
2018-07-10T16:19:29.604Z,6.80
2018-07-10T16:22:06.311Z,6.20
2018-07-10T16:24:42.796Z,7.47
2018-07-10T16:27:12.359Z,6.93
2018-07-10T16:29:42.636Z,6.90
2018-07-10T16:32:12.870Z,7.77
2018-07-10T16:34:42.437Z,7.17
2018-07-10T16:37:11.771Z,7.80
2018-07-10T16:39:42.697Z,9.00
2018-07-10T16:42:18.788Z,8.90
2018-07-10T16:44:48.479Z,9.43
2018-07-10T16:47:28.950Z,9.70
2018-07-10T16:50:01.025Z,8.83
2018-07-10T16:52:42.974Z,11.77
2018-07-10T16:55:12.229Z,9.43
2018-07-10T16:57:41.561Z,9.70
2018-07-10T17:00:10.832Z,12.40
2018-07-10T17:02:40.232Z,13.03
2018-07-10T17:05:09.422Z,14.13
2018-07-10T17:07:38.658Z,13.20
2018-07-10T17:10:08.004Z,10.47
2018-07-10T17:12:37.194Z,10.53
2018-07-10T17:15:06.526Z,10.27
2018-07-10T17:17:35.763Z,10.77
2018-07-10T17:20:04.897Z,10.70
2018-07-10T17:22:34.108Z,11.50
2018-07-10T17:25:03.693Z,11.20
2018-07-10T17:27:34.553Z,11.03
2018-07-10T17:30:04.996Z,11.07
2018-07-10T17:32:36.178Z,10.93
2018-07-10T17:35:06.093Z,10.47
2018-07-10T17:37:52.311Z,9.90
2018-07-10T17:40:21.845Z,10.33
2018-07-10T17:42:51.359Z,10.00
2018-07-10T17:45:23.208Z,10.40
2018-07-10T17:47:52.902Z,10.80
2018-07-10T17:50:22.822Z,10.13
2018-07-10T17:52:52.121Z,10.33
2018-07-10T17:55:22.284Z,10.03
2018-07-10T17:57:55.041Z,9.47
2018-07-10T18:00:24.464Z,10.03
2018-07-10T18:02:53.983Z,10.30
2018-07-10T18:05:23.695Z,10.10
2018-07-10T18:07:53.793Z,10.77
2018-07-10T18:10:23.042Z,10.63
2018-07-10T18:12:52.269Z,9.53
2018-07-10T18:15:21.797Z,9.70
2018-07-10T18:17:51.693Z,10.03
2018-07-10T18:20:21.024Z,10.43
2018-07-10T18:22:51.530Z,10.43
2018-07-10T18:25:21.161Z,10.57
2018-07-10T18:27:50.611Z,9.87
2018-07-10T18:30:20.339Z,10.03
2018-07-10T18:32:49.814Z,9.60
2018-07-10T18:35:19.180Z,11.17
2018-07-10T18:37:49.293Z,10.40
2018-07-10T18:40:18.836Z,10.17
2018-07-10T18:42:48.184Z,10.13
2018-07-10T18:45:17.397Z,9.97
2018-07-10T18:47:47.886Z,10.43
2018-07-10T18:50:17.206Z,9.97
2018-07-10T18:52:46.962Z,10.37
2018-07-10T18:55:17.041Z,9.77
2018-07-10T18:57:59.638Z,10.30
2018-07-10T19:00:41.506Z,9.80
2018-07-10T19:03:13.080Z,9.60
2018-07-10T19:05:49.322Z,9.17
2018-07-10T19:08:19.423Z,9.93
2018-07-10T19:10:48.818Z,9.13
2018-07-10T19:13:19.662Z,9.37
2018-07-10T19:15:50.019Z,9.50
2018-07-10T19:18:21.457Z,9.80
2018-07-10T19:20:58.137Z,9.60
2018-07-10T19:23:37.416Z,9.30
2018-07-10T19:26:08.646Z,8.83
2018-07-10T19:28:38.185Z,8.20
2018-07-10T19:31:26.476Z,9.43
2018-07-10T19:33:58.581Z,8.23
2018-07-10T19:36:28.804Z,8.40
2018-07-10T19:38:58.195Z,8.50
2018-07-10T19:41:27.617Z,8.17
2018-07-10T19:43:57.250Z,8.90
2018-07-10T19:46:28.197Z,9.07
2018-07-10T19:48:58.663Z,8.07
2018-07-10T19:51:29.672Z,8.70
2018-07-10T19:54:01.945Z,8.73
2018-07-10T19:56:31.476Z,8.67
2018-07-10T19:59:01.745Z,8.43
2018-07-10T20:01:41.115Z,8.00
2018-07-10T20:04:16.037Z,8.37
2018-07-10T20:06:58.179Z,8.20
2018-07-10T20:09:31.226Z,8.43
2018-07-10T20:12:09.992Z,8.20
2018-07-10T20:15:54.343Z,10.00
2018-07-10T20:18:33.083Z,9.30
2018-07-10T20:22:08.409Z,9.37
2018-07-10T20:24:41.579Z,9.27
2018-07-10T20:27:17.058Z,9.47
2018-07-10T20:32:01.679Z,10.23
2018-07-10T20:34:40.608Z,10.37
2018-07-10T20:37:16.656Z,10.53
2018-07-10T20:39:45.922Z,10.73
2018-07-10T20:42:15.902Z,10.30
2018-07-10T20:44:57.709Z,10.60
2018-07-10T20:47:29.369Z,10.30
2018-07-10T20:50:05.316Z,10.73
2018-07-10T20:52:59.321Z,10.93
2018-07-10T20:55:34.780Z,10.97
2018-07-10T20:58:07.626Z,10.43
2018-07-10T21:00:43.083Z,10.40
2018-07-10T21:03:53.173Z,10.83
2018-07-10T21:06:28.366Z,10.93
2018-07-10T21:09:15.739Z,10.17
2018-07-10T21:11:55.578Z,10.60
2018-07-10T21:14:32.464Z,10.47
2018-07-10T21:17:07.235Z,10.13
2018-07-10T21:20:09.871Z,10.60
2018-07-10T21:23:48.451Z,10.13
2018-07-10T21:26:31.573Z,9.83
2018-07-10T21:29:10.025Z,10.73
2018-07-10T21:31:45.031Z,10.33
2018-07-10T21:34:25.927Z,12.03
2018-07-10T21:38:10.657Z,10.80
2018-07-10T21:40:55.999Z,10.03
2018-07-10T21:44:34.577Z,9.33
2018-07-10T21:48:12.923Z,10.30
2018-07-10T21:50:48.513Z,10.10
2018-07-10T21:53:18.101Z,10.63
2018-07-10T21:55:47.590Z,10.20
2018-07-10T21:58:20.334Z,10.17
2018-07-10T22:02:07.278Z,10.90
2018-07-10T22:04:38.149Z,10.87
2018-07-10T22:07:10.136Z,9.23
2018-07-10T22:09:40.072Z,9.70
2018-07-10T22:12:20.604Z,9.23
2018-07-10T22:14:50.291Z,10.97
2018-07-10T22:17:22.416Z,9.80
2018-07-10T22:19:53.873Z,9.90
2018-07-10T22:22:29.039Z,9.10
2018-07-10T22:25:00.105Z,9.03
2018-07-10T22:27:29.366Z,9.43
2018-07-10T22:30:10.863Z,9.27
2018-07-10T22:32:46.047Z,9.30
2018-07-10T22:35:16.644Z,8.93
2018-07-10T22:37:46.079Z,8.57
2018-07-10T22:40:16.344Z,9.57
2018-07-10T22:42:45.615Z,8.83
2018-07-10T22:45:15.102Z,9.90
2018-07-10T22:47:45.495Z,9.47
2018-07-10T22:50:17.600Z,10.20
2018-07-10T22:53:05.402Z,9.70
2018-07-10T22:55:34.973Z,9.90
2018-07-10T22:58:08.410Z,9.33
2018-07-10T23:00:38.929Z,9.53
2018-07-10T23:03:18.579Z,9.60
2018-07-10T23:05:48.838Z,10.53
2018-07-10T23:08:20.226Z,9.67
2018-07-10T23:10:49.962Z,9.37
2018-07-10T23:13:20.453Z,10.20
2018-07-10T23:15:50.410Z,10.00
2018-07-10T23:18:20.267Z,10.70
2018-07-10T23:20:50.312Z,10.83
2018-07-10T23:23:20.695Z,10.07
2018-07-10T23:25:49.961Z,9.63
2018-07-10T23:28:19.465Z,9.60
2018-07-10T23:30:49.119Z,9.80
2018-07-10T23:33:19.410Z,9.40
2018-07-10T23:35:50.568Z,9.50
2018-07-10T23:38:30.074Z,11.00
2018-07-10T23:41:00.902Z,9.60
2018-07-10T23:43:35.829Z,9.50
2018-07-10T23:46:07.059Z,9.53
2018-07-10T23:48:36.616Z,8.97
2018-07-10T23:51:05.873Z,9.30
2018-07-10T23:53:52.181Z,8.83
2018-07-10T23:56:22.379Z,8.93
2018-07-10T23:58:51.917Z,9.57
